Time;durP1;ratioP1;P1;durP2;ratioP2;P2;SDS_P1;SDS_P2;PMS_P1;PMS_P2;Temp;Humidity;BMP_temperature;BMP_pressure;BME280_temperature;BME280_humidity;BME280_pressure;Samples;Min_cycle;Max_cycle;Signal;HPM_P1;HPM_P2
2022/09/09 00:02:21;;;;;;;2.40;1.58;;;24.70;88.30;;;;;;6368425;22;20085;-83
2022/09/09 00:05:01;;;;;;;4.93;1.63;;;24.70;88.50;;;;;;6369249;22;19998;-84
2022/09/09 00:07:50;;;;;;;3.90;1.73;;;24.80;88.50;;;;;;6369390;22;19999;-83
2022/09/09 00:10:28;;;;;;;3.45;1.80;;;24.80;88.60;;;;;;6371591;22;20051;-85
2022/09/09 00:12:57;;;;;;;4.57;1.90;;;24.80;88.60;;;;;;6371095;22;20009;-83
2022/09/09 00:15:28;;;;;;;5.28;2.38;;;24.80;88.50;;;;;;6370551;22;20006;-83
2022/09/09 00:18:29;;;;;;;7.40;1.77;;;24.70;88.70;;;;;;6370422;22;20451;-83
2022/09/09 00:21:17;;;;;;;;;;;24.70;88.70;;;;;;6370934;22;19998;-82
2022/09/09 00:23:52;;;;;;;4.32;1.90;;;24.70;89.10;;;;;;6370415;22;19921;-83
2022/09/09 00:26:40;;;;;;;3.83;1.73;;;24.70;88.80;;;;;;6370568;22;20082;-83
2022/09/09 00:29:22;;;;;;;4.68;2.00;;;24.70;88.90;;;;;;6370381;22;19994;-83
2022/09/09 00:31:49;;;;;;;2.47;1.67;;;24.70;88.90;;;;;;6370354;22;19998;-82
2022/09/09 00:34:24;;;;;;;5.40;3.50;;;24.60;89.00;;;;;;6370059;22;20051;-83
2022/09/09 00:36:52;;;;;;;8.02;3.45;;;24.40;89.30;;;;;;6369487;22;20040;-83
2022/09/09 00:39:34;;;;;;;9.15;3.67;;;24.20;90.10;;;;;;6370104;22;20460;-82
2022/09/09 00:42:15;;;;;;;5.30;3.15;;;23.80;90.90;;;;;;6370057;22;20370;-83
2022/09/09 00:45:12;;;;;;;3.97;2.13;;;23.70;91.00;;;;;;6370817;22;20344;-82
2022/09/09 00:47:51;;;;;;;2.70;2.03;;;23.70;91.00;;;;;;6370039;22;19999;-82
2022/09/09 00:50:43;;;;;;;3.65;2.17;;;23.80;90.70;;;;;;6370167;22;20002;-83
2022/09/09 00:53:38;;;;;;;7.32;2.63;;;23.90;90.60;;;;;;6370385;22;19998;-84
2022/09/09 00:56:20;;;;;;;6.55;2.30;;;24.00;90.40;;;;;;6369954;22;20416;-83
2022/09/09 00:59:21;;;;;;;2.60;2.00;;;24.10;90.30;;;;;;6368342;22;20005;-83
2022/09/09 01:01:46;;;;;;;3.83;2.20;;;24.20;90.20;;;;;;6319749;22;20017;-83
2022/09/09 01:04:22;;;;;;;4.00;2.30;;;24.20;90.10;;;;;;6370308;22;20026;-82
2022/09/09 01:06:57;;;;;;;4.80;2.38;;;24.30;90.10;;;;;;6368504;22;20055;-82
2022/09/09 01:09:29;;;;;;;4.95;2.25;;;24.20;90.00;;;;;;6341917;22;19998;-83
2022/09/09 01:12:07;;;;;;;3.15;2.22;;;24.20;89.90;;;;;;6369719;22;20421;-83
2022/09/09 01:14:36;;;;;;;3.30;1.90;;;24.20;89.90;;;;;;6370313;22;19999;-83
2022/09/09 01:17:25;;;;;;;4.80;2.05;;;24.20;89.80;;;;;;6368950;22;20005;-83
2022/09/09 01:20:12;;;;;;;3.15;1.98;;;24.20;89.60;;;;;;6369600;22;20081;-84
2022/09/09 01:22:56;;;;;;;5.28;2.53;;;24.20;89.50;;;;;;6369725;22;20005;-85
2022/09/09 01:25:25;;;;;;;2.90;1.75;;;24.20;89.20;;;;;;6369782;22;20059;-86
2022/09/09 01:27:56;;;;;;;3.10;2.00;;;24.20;89.10;;;;;;6369994;22;20009;-85
2022/09/09 01:30:22;;;;;;;4.22;1.80;;;24.20;89.00;;;;;;6369994;22;20014;-85
2022/09/09 01:32:58;;;;;;;2.80;1.73;;;24.20;88.80;;;;;;6369320;22;20078;-85
2022/09/09 01:35:45;;;;;;;3.55;1.27;;;24.20;88.60;;;;;;6368953;22;20009;-85
2022/09/09 01:38:10;;;;;;;3.78;2.22;;;24.10;88.60;;;;;;6369326;22;20029;-85
2022/09/09 01:40:36;;;;;;;2.90;1.83;;;24.10;88.50;;;;;;6370204;22;20013;-86
2022/09/09 01:43:03;;;;;;;3.88;1.70;;;24.10;88.30;;;;;;6369352;22;20290;-85
2022/09/09 01:45:30;;;;;;;2.47;1.55;;;24.10;88.10;;;;;;6370181;22;20078;-85
2022/09/09 01:47:56;;;;;;;5.03;2.03;;;24.00;88.00;;;;;;6369610;22;20400;-84
2022/09/09 01:50:22;;;;;;;2.50;1.80;;;24.00;87.70;;;;;;6342440;22;20003;-83
2022/09/09 01:52:52;;;;;;;3.88;2.30;;;24.00;87.50;;;;;;6369826;22;20049;-84
2022/09/09 01:55:27;;;;;;;5.03;1.67;;;24.00;87.60;;;;;;6369637;22;20002;-84
2022/09/09 01:58:08;;;;;;;3.80;1.63;;;23.90;87.50;;;;;;6369020;22;20002;-84
2022/09/09 02:00:38;;;;;;;4.80;1.60;;;23.90;87.80;;;;;;6369234;22;20400;-87
2022/09/09 02:03:31;;;;;;;4.38;1.70;;;23.90;87.90;;;;;;6369536;22;20397;-87
2022/09/09 02:06:18;;;;;;;3.28;1.70;;;23.90;87.50;;;;;;6369459;22;20369;-86
2022/09/09 02:08:48;;;;;;;4.03;1.60;;;23.70;88.10;;;;;;6370107;22;20366;-85
2022/09/09 02:11:24;;;;;;;4.47;1.73;;;23.80;88.20;;;;;;6369582;22;20360;-86
2022/09/09 02:13:54;;;;;;;4.78;1.35;;;23.80;88.40;;;;;;6368791;22;20417;-83
2022/09/09 02:16:59;;;;;;;3.65;1.58;;;23.80;88.40;;;;;;6369355;22;20003;-83
2022/09/09 02:19:49;;;;;;;3.78;1.42;;;23.80;88.60;;;;;;6279183;22;20010;-84
2022/09/09 02:22:19;;;;;;;3.03;1.45;;;23.80;88.50;;;;;;6370030;22;20406;-83
2022/09/09 02:24:46;;;;;;;4.28;2.00;;;23.80;88.60;;;;;;6369365;22;20325;-83
2022/09/09 02:27:13;;;;;;;3.20;1.52;;;23.80;88.70;;;;;;6369202;22;20022;-83
2022/09/09 02:29:41;;;;;;;3.90;1.63;;;23.80;88.60;;;;;;6368811;22;19998;-82
2022/09/09 02:32:11;;;;;;;4.72;1.70;;;23.80;88.80;;;;;;6368945;22;20051;-82
2022/09/09 02:34:47;;;;;;;5.43;1.85;;;23.80;88.70;;;;;;6369097;22;20003;-82
2022/09/09 02:37:17;;;;;;;4.22;1.70;;;23.80;88.80;;;;;;6369552;22;20002;-82
2022/09/09 02:39:44;;;;;;;4.88;2.00;;;23.80;88.90;;;;;;6369194;22;20049;-84
2022/09/09 02:42:09;;;;;;;2.50;1.50;;;23.80;88.90;;;;;;6369339;22;20002;-84
2022/09/09 02:44:36;;;;;;;5.47;1.80;;;23.80;88.80;;;;;;6369202;22;19999;-84
2022/09/09 02:47:20;;;;;;;4.05;1.60;;;23.70;88.90;;;;;;6369124;22;20003;-83
2022/09/09 02:50:02;;;;;;;6.82;2.33;;;23.70;88.90;;;;;;6369649;22;20006;-83
2022/09/09 02:52:42;;;;;;;5.50;1.90;;;23.70;88.90;;;;;;6368987;22;20357;-83
2022/09/09 02:55:28;;;;;;;;;;;23.60;89.00;;;;;;6369330;22;20069;-81
2022/09/09 02:57:55;;;;;;;4.75;1.75;;;23.60;89.10;;;;;;6370775;22;19895;-82
2022/09/09 03:00:27;;;;;;;3.10;1.60;;;23.50;89.20;;;;;;6371634;22;20005;-83
2022/09/09 03:02:54;;;;;;;3.30;1.77;;;23.40;89.40;;;;;;6370935;22;20002;-83
2022/09/09 03:05:20;;;;;;;2.28;1.42;;;23.40;89.30;;;;;;6371455;22;20006;-82
2022/09/09 03:07:47;;;;;;;8.63;1.88;;;23.40;89.20;;;;;;6371183;22;20020;-82
2022/09/09 03:10:13;;;;;;;5.47;1.65;;;23.30;89.90;;;;;;6371205;22;20003;-82
2022/09/09 03:12:39;;;;;;;4.07;1.75;;;23.40;89.50;;;;;;6343440;22;20033;-83
2022/09/09 03:15:06;;;;;;;3.97;1.58;;;23.40;89.30;;;;;;6370855;22;20002;-84
2022/09/09 03:17:32;;;;;;;4.07;1.63;;;23.40;89.20;;;;;;6371896;22;20320;-84
2022/09/09 03:19:58;;;;;;;3.55;1.17;;;23.40;89.10;;;;;;6370589;22;20009;-82
2022/09/09 03:22:25;;;;;;;3.38;1.63;;;23.50;89.00;;;;;;6371018;22;20040;-82
2022/09/09 03:24:51;;;;;;;3.53;1.45;;;23.50;88.90;;;;;;6370662;22;20412;-84
2022/09/09 03:27:19;;;;;;;3.55;1.40;;;23.50;88.80;;;;;;6371781;22;20047;-83
2022/09/09 03:29:45;;;;;;;4.82;1.75;;;23.50;88.70;;;;;;6371163;22;20002;-84
2022/09/09 03:32:12;;;;;;;5.80;1.90;;;23.50;88.70;;;;;;6371582;22;20010;-85
2022/09/09 03:34:40;;;;;;;3.00;1.67;;;23.50;88.60;;;;;;6370090;22;20006;-84
2022/09/09 03:37:06;;;;;;;2.03;1.30;;;23.50;88.70;;;;;;6370796;22;20305;-84
2022/09/09 03:39:31;;;;;;;5.28;1.80;;;23.50;88.70;;;;;;6370664;22;20017;-84
2022/09/09 03:41:57;;;;;;;2.10;1.27;;;23.50;88.80;;;;;;6371065;22;20324;-84
2022/09/09 03:44:23;;;;;;;3.03;1.42;;;23.60;88.90;;;;;;6370218;22;20069;-84
2022/09/09 03:46:48;;;;;;;4.53;1.63;;;23.60;88.80;;;;;;6370270;22;19994;-83
2022/09/09 03:49:15;;;;;;;3.28;1.75;;;23.60;88.80;;;;;;6342873;22;20014;-83
2022/09/09 03:51:41;;;;;;;4.35;1.80;;;23.60;88.90;;;;;;6370597;22;19998;-82
2022/09/09 03:54:09;;;;;;;11.70;2.58;;;23.60;88.90;;;;;;6370483;22;20002;-82
2022/09/09 03:56:36;;;;;;;3.22;1.90;;;23.60;89.20;;;;;;6343342;22;19999;-83
2022/09/09 03:59:03;;;;;;;5.18;2.03;;;23.60;89.40;;;;;;6370350;22;20059;-81
2022/09/09 04:01:29;;;;;;;5.85;2.47;;;23.50;89.50;;;;;;6371312;22;20400;-83
2022/09/09 04:03:57;;;;;;;5.65;2.35;;;23.50;89.70;;;;;;6370295;22;20001;-84
2022/09/09 04:06:24;;;;;;;6.50;2.20;;;23.40;90.00;;;;;;6370788;22;19999;-83
2022/09/09 04:08:51;;;;;;;4.75;2.38;;;23.50;89.70;;;;;;6371149;22;20026;-83
2022/09/09 04:11:17;;;;;;;4.00;2.08;;;23.50;90.10;;;;;;6370733;22;20010;-82
2022/09/09 04:13:44;;;;;;;8.50;2.53;;;23.50;89.80;;;;;;6341798;22;19998;-82
2022/09/09 04:16:13;;;;;;;4.85;2.08;;;23.50;90.00;;;;;;6370236;22;19999;-82
2022/09/09 04:18:39;;;;;;;4.60;2.25;;;23.60;89.80;;;;;;6370666;22;19998;-82
2022/09/09 04:21:06;;;;;;;5.20;2.28;;;23.60;89.70;;;;;;6370476;22;20010;-83
2022/09/09 04:23:34;;;;;;;10.88;3.72;;;23.60;89.80;;;;;;6370342;22;20055;-83
2022/09/09 04:26:01;;;;;;;3.53;2.38;;;23.50;90.20;;;;;;6369845;22;20081;-82
2022/09/09 04:28:30;;;;;;;3.67;2.58;;;23.40;90.00;;;;;;6370872;22;20087;-84
2022/09/09 04:30:56;;;;;;;5.57;2.37;;;23.40;90.20;;;;;;6370551;22;20417;-83
2022/09/09 04:33:26;;;;;;;6.00;2.50;;;23.40;90.20;;;;;;6370034;22;20033;-84
2022/09/09 04:35:53;;;;;;;3.75;2.50;;;23.50;90.20;;;;;;6370134;22;20021;-80
2022/09/09 04:38:19;;;;;;;5.68;2.60;;;23.50;90.10;;;;;;6370737;22;20009;-79
2022/09/09 04:40:47;;;;;;;5.82;2.60;;;23.50;90.10;;;;;;6370633;22;20464;-79
2022/09/09 04:43:14;;;;;;;5.43;2.72;;;23.50;90.20;;;;;;6369882;22;20001;-83
2022/09/09 04:45:41;;;;;;;4.93;2.50;;;23.50;90.10;;;;;;6369071;22;20025;-81
2022/09/09 04:48:07;;;;;;;4.93;2.35;;;23.60;90.10;;;;;;6342628;22;19998;-81
2022/09/09 04:50:33;;;;;;;4.30;2.47;;;23.60;90.10;;;;;;6370424;22;20009;-78
2022/09/09 04:53:04;;;;;;;6.63;2.90;;;23.60;90.20;;;;;;6369247;22;20343;-77
2022/09/09 04:55:31;;;;;;;4.60;2.67;;;23.70;90.10;;;;;;6368806;22;19999;-77
2022/09/09 04:58:00;;;;;;;5.75;2.60;;;23.80;90.00;;;;;;6369140;22;20006;-77
2022/09/09 05:00:25;;;;;;;5.47;2.72;;;23.80;89.90;;;;;;6341790;22;20003;-77
2022/09/09 05:02:51;;;;;;;5.25;2.78;;;23.80;89.80;;;;;;6370085;22;20005;-77
2022/09/09 05:05:18;;;;;;;5.05;2.45;;;23.80;89.70;;;;;;6369863;22;20054;-77
2022/09/09 05:07:44;;;;;;;8.85;2.67;;;23.80;89.60;;;;;;6367928;22;20013;-83
2022/09/09 05:10:10;;;;;;;5.97;2.75;;;23.80;89.60;;;;;;6367098;22;20081;-83
2022/09/09 05:12:36;;;;;;;4.38;2.30;;;23.90;89.50;;;;;;6369409;22;20038;-83
2022/09/09 05:15:02;;;;;;;6.45;2.92;;;23.90;89.40;;;;;;6368559;22;20312;-84
2022/09/09 05:17:28;;;;;;;3.90;2.33;;;23.90;89.10;;;;;;6368748;22;20006;-83
2022/09/09 05:19:54;;;;;;;3.40;2.33;;;23.90;89.10;;;;;;6340929;22;20029;-83
2022/09/09 05:22:21;;;;;;;4.55;2.00;;;23.90;89.10;;;;;;6370194;22;20239;-83
2022/09/09 05:24:46;;;;;;;4.97;2.60;;;23.90;89.10;;;;;;6370232;22;20073;-83
2022/09/09 05:27:13;;;;;;;6.72;2.20;;;23.90;89.00;;;;;;6370475;22;20417;-83
2022/09/09 05:29:41;;;;;;;3.22;1.90;;;23.90;88.90;;;;;;6369867;22;20011;-82
2022/09/09 05:32:06;;;;;;;4.55;2.10;;;23.90;88.80;;;;;;6370121;22;20058;-83
2022/09/09 05:34:32;;;;;;;5.28;2.30;;;23.90;88.60;;;;;;6368900;22;20351;-85
2022/09/09 05:36:58;;;;;;;4.03;2.25;;;23.90;88.40;;;;;;6369301;22;20024;-83
2022/09/09 05:39:24;;;;;;;3.25;1.83;;;24.00;88.30;;;;;;6369131;22;20014;-84
2022/09/09 05:41:50;;;;;;;3.67;2.10;;;23.90;88.30;;;;;;6370375;22;20405;-84
2022/09/09 05:44:16;;;;;;;4.82;1.95;;;23.90;88.30;;;;;;6370622;22;20059;-81
2022/09/09 05:46:42;;;;;;;3.95;1.90;;;23.90;88.40;;;;;;6370096;22;20434;-80
2022/09/09 05:49:08;;;;;;;4.97;1.92;;;23.90;88.20;;;;;;6370484;22;20002;-80
2022/09/09 05:51:34;;;;;;;3.13;2.00;;;23.90;88.30;;;;;;6368547;22;20431;-80
2022/09/09 05:54:00;;;;;;;9.43;1.88;;;23.90;88.30;;;;;;6369983;22;20003;-81
2022/09/09 05:56:27;;;;;;;4.35;2.00;;;24.00;88.30;;;;;;6370576;22;20116;-80
2022/09/09 05:58:55;;;;;;;6.10;2.10;;;24.10;88.30;;;;;;6369958;22;19998;-80
2022/09/09 06:01:23;;;;;;;5.03;2.10;;;24.10;88.20;;;;;;6370290;22;20020;-76
2022/09/09 06:03:51;;;;;;;4.35;1.90;;;24.10;88.10;;;;;;6370301;22;19999;-76
2022/09/09 06:06:22;;;;;;;3.80;1.80;;;24.10;88.60;;;;;;6370327;22;20521;-75
2022/09/09 06:08:51;;;;;;;2.95;1.80;;;24.10;88.10;;;;;;6370193;22;20021;-76
2022/09/09 06:11:19;;;;;;;5.35;1.80;;;24.10;88.20;;;;;;6369457;22;20025;-76
2022/09/09 06:13:45;;;;;;;5.30;1.85;;;24.10;88.20;;;;;;6369444;22;20007;-80
2022/09/09 06:16:13;;;;;;;4.30;2.00;;;24.20;88.70;;;;;;6370374;22;20006;-80
2022/09/09 06:18:39;;;;;;;5.47;1.77;;;24.20;88.10;;;;;;6370544;22;20025;-80
2022/09/09 06:21:11;;;;;;;4.88;1.75;;;24.20;88.20;;;;;;6369404;22;20438;-80
2022/09/09 06:23:36;;;;;;;5.43;2.25;;;24.20;88.10;;;;;;6368971;22;19998;-81
2022/09/09 06:26:17;;;;;;;4.78;2.40;;;24.30;88.10;;;;;;6369678;22;20069;-81
2022/09/09 06:28:44;;;;;;;6.25;1.90;;;24.30;88.10;;;;;;6369113;22;19998;-80
2022/09/09 06:31:12;;;;;;;3.03;2.00;;;24.30;88.10;;;;;;6371926;22;20616;-80
2022/09/09 06:33:40;;;;;;;3.88;2.25;;;24.40;88.00;;;;;;6371153;22;20034;-80
2022/09/09 06:36:11;;;;;;;2.20;1.63;;;24.40;88.10;;;;;;6370799;22;19995;-80
2022/09/09 06:38:37;;;;;;;4.03;2.08;;;24.40;88.20;;;;;;6332381;22;20037;-80
2022/09/09 06:41:05;;;;;;;4.65;1.75;;;24.40;88.40;;;;;;6336807;22;19998;-81
2022/09/09 06:43:31;;;;;;;5.45;1.92;;;24.40;88.40;;;;;;6340139;22;20465;-80
2022/09/09 06:45:59;;;;;;;7.55;2.22;;;24.40;88.50;;;;;;6339912;22;20401;-82
2022/09/09 06:48:26;;;;;;;7.30;2.33;;;24.50;88.80;;;;;;6340207;22;20290;-81
2022/09/09 06:51:13;;;;;;;3.75;1.90;;;24.50;88.70;;;;;;6338017;22;20102;-80
2022/09/09 06:53:41;;;;;;;6.57;2.20;;;24.60;88.80;;;;;;6338777;22;20078;-80
2022/09/09 06:56:11;;;;;;;7.32;1.95;;;24.60;88.70;;;;;;6340590;22;20033;-81
2022/09/09 06:58:43;;;;;;;4.32;1.95;;;24.70;88.70;;;;;;6339480;22;20013;-81
2022/09/09 07:01:14;;;;;;;377.88;331.48;;;24.70;88.60;;;;;;6339128;22;20052;-81
2022/09/09 07:03:42;;;;;;;352.80;315.52;;;24.80;89.00;;;;;;6340091;22;20069;-83
2022/09/09 07:06:14;;;;;;;38.28;34.13;;;24.90;88.70;;;;;;6338000;22;20003;-81
2022/09/09 07:08:40;;;;;;;8.75;7.15;;;24.90;88.40;;;;;;6332135;22;19999;-81
2022/09/09 07:11:08;;;;;;;6.03;4.22;;;25.00;88.10;;;;;;6338047;22;20021;-76
2022/09/09 07:13:40;;;;;;;6.25;3.20;;;25.00;88.00;;;;;;6337433;22;19994;-75
2022/09/09 07:16:12;;;;;;;4.30;2.33;;;25.00;87.90;;;;;;6337293;22;20007;-81
2022/09/09 07:18:41;;;;;;;8.02;2.05;;;25.10;87.90;;;;;;6336549;22;20532;-81
2022/09/09 07:21:08;;;;;;;5.30;1.92;;;25.10;87.80;;;;;;6336947;22;20085;-75
2022/09/09 07:23:38;;;;;;;7.97;2.10;;;25.10;87.70;;;;;;6336557;22;20006;-76
2022/09/09 07:26:15;;;;;;;3.67;1.80;;;25.20;87.70;;;;;;6338486;22;20022;-76
2022/09/09 07:28:42;;;;;;;4.95;2.10;;;25.20;87.70;;;;;;6337576;22;20104;-76
2022/09/09 07:31:22;;;;;;;4.78;2.00;;;25.30;87.80;;;;;;6336621;22;20006;-76
2022/09/09 07:33:49;;;;;;;3.17;1.85;;;25.30;87.60;;;;;;6335994;22;20003;-81
2022/09/09 07:36:21;;;;;;;7.28;2.50;;;25.30;87.50;;;;;;6336283;22;20425;-76
2022/09/09 07:38:51;;;;;;;5.78;2.00;;;25.30;87.50;;;;;;6345497;22;20020;-81
2022/09/09 07:41:23;;;;;;;3.83;1.83;;;25.30;87.60;;;;;;6367964;22;20002;-76
2022/09/09 07:43:49;;;;;;;5.68;1.95;;;25.40;87.80;;;;;;6340906;22;20034;-75
2022/09/09 07:46:17;;;;;;;5.78;2.47;;;25.40;87.70;;;;;;6368921;22;20089;-75
2022/09/09 07:48:52;;;;;;;5.30;2.10;;;25.40;87.90;;;;;;6369841;22;19998;-77
2022/09/09 07:51:21;;;;;;;6.13;2.10;;;25.40;87.70;;;;;;6369386;22;20009;-82
2022/09/09 07:53:48;;;;;;;4.13;1.90;;;25.50;87.80;;;;;;6341139;22;20056;-79
2022/09/09 07:56:22;;;;;;;5.68;1.80;;;25.50;87.70;;;;;;6369708;22;20006;-86
2022/09/09 07:58:50;;;;;;;11.45;2.60;;;25.60;87.60;;;;;;6341788;22;20045;-78
2022/09/09 08:01:17;;;;;;;5.45;1.90;;;25.70;86.50;;;;;;6368410;22;20002;-79
2022/09/09 08:03:45;;;;;;;12.75;2.03;;;25.80;86.80;;;;;;6366981;22;19998;-78
2022/09/09 08:06:12;;;;;;;7.05;1.90;;;25.90;86.60;;;;;;6369338;22;20362;-78
2022/09/09 08:08:47;;;;;;;5.53;2.13;;;26.00;86.20;;;;;;6370063;22;20404;-79
2022/09/09 08:11:15;;;;;;;7.00;1.77;;;26.10;85.90;;;;;;6340832;22;20089;-77
2022/09/09 08:13:42;;;;;;;6.68;1.80;;;26.20;85.40;;;;;;6368758;22;20002;-77
2022/09/09 08:16:17;;;;;;;7.60;2.15;;;26.20;85.10;;;;;;6369041;22;20002;-77
2022/09/09 08:18:44;;;;;;;7.25;1.92;;;26.30;84.40;;;;;;6369061;22;20002;-78
2022/09/09 08:21:17;;;;;;;4.32;1.77;;;26.30;84.20;;;;;;6369052;22;20006;-77
2022/09/09 08:23:45;;;;;;;2.53;1.45;;;26.40;84.30;;;;;;6368845;22;20003;-77
2022/09/09 08:26:22;;;;;;;3.28;1.60;;;26.50;84.00;;;;;;6369677;22;20005;-77
2022/09/09 08:28:50;;;;;;;4.32;1.63;;;26.50;83.30;;;;;;6369211;22;20033;-78
2022/09/09 08:31:21;;;;;;;3.63;2.00;;;26.60;83.20;;;;;;6368643;22;20008;-78
2022/09/09 08:33:47;;;;;;;3.10;1.38;;;26.70;82.60;;;;;;6368610;22;20002;-78
2022/09/09 08:36:19;;;;;;;2.80;1.27;;;26.70;81.80;;;;;;6368421;22;20432;-78
2022/09/09 08:38:49;;;;;;;3.90;1.40;;;26.80;81.80;;;;;;6366964;22;20010;-78
2022/09/09 08:41:49;;;;;;;6.93;1.80;;;26.90;81.90;;;;;;6368178;22;20435;-78
2022/09/09 08:44:31;;;;;;;4.93;1.77;;;27.00;81.70;;;;;;6368228;22;20372;-78
2022/09/09 08:47:06;;;;;;;5.78;1.50;;;27.10;80.40;;;;;;6369140;22;19998;-78
2022/09/09 08:50:07;;;;;;;2.22;1.25;;;27.10;79.60;;;;;;6368587;22;20447;-78
2022/09/09 08:52:53;;;;;;;2.90;1.50;;;27.20;79.80;;;;;;6369002;22;19999;-77
2022/09/09 08:55:27;;;;;;;3.33;1.40;;;27.30;79.60;;;;;;6368415;22;20007;-77
2022/09/09 08:57:55;;;;;;;2.80;1.25;;;27.30;79.10;;;;;;6369364;22;20400;-77
2022/09/09 09:00:22;;;;;;;2.60;1.20;;;27.40;79.20;;;;;;6368765;22;20062;-77
2022/09/09 09:03:09;;;;;;;2.85;1.30;;;27.50;78.70;;;;;;6368810;22;20033;-77
2022/09/09 09:06:01;;;;;;;3.53;1.60;;;27.60;76.30;;;;;;6367040;22;19994;-77
2022/09/09 09:08:43;;;;;;;3.33;1.23;;;27.50;77.60;;;;;;6366825;22;19999;-76
2022/09/09 09:11:09;;;;;;;3.22;1.30;;;27.60;77.80;;;;;;6333123;22;20446;-77
2022/09/09 09:13:55;;;;;;;4.97;1.30;;;27.70;77.20;;;;;;6364261;22;20002;-77
2022/09/09 09:16:34;;;;;;;3.65;1.63;;;27.60;76.80;;;;;;6367178;22;20002;-84
2022/09/09 09:19:00;;;;;;;2.78;1.33;;;27.50;75.90;;;;;;6367553;22;20002;-79
2022/09/09 09:21:43;;;;;;;2.85;1.15;;;27.40;76.90;;;;;;6367571;22;20089;-76
2022/09/09 09:24:18;;;;;;;3.15;1.35;;;27.50;77.20;;;;;;6339661;22;20011;-84
2022/09/09 09:26:44;;;;;;;4.60;1.45;;;27.60;77.30;;;;;;6340332;22;20002;-83
2022/09/09 09:29:14;;;;;;;5.70;1.60;;;27.70;76.70;;;;;;6368044;22;20005;-83
2022/09/09 09:31:48;;;;;;;6.43;1.70;;;27.80;76.20;;;;;;6367226;22;20007;-85
2022/09/09 09:34:14;;;;;;;3.60;1.60;;;28.00;75.80;;;;;;6339779;22;20069;-85
2022/09/09 09:36:46;;;;;;;2.60;1.10;;;28.10;75.50;;;;;;6367890;22;19998;-84
2022/09/09 09:39:22;;;;;;;5.90;1.50;;;28.20;75.20;;;;;;6367072;22;20049;-77
2022/09/09 09:41:48;;;;;;;2.70;1.42;;;28.40;75.20;;;;;;6366263;22;20716;-76
2022/09/09 09:44:33;;;;;;;2.67;1.33;;;28.50;74.20;;;;;;6366656;22;20056;-74
2022/09/09 09:47:12;;;;;;;4.30;1.35;;;28.60;74.10;;;;;;6365730;22;20002;-76
2022/09/09 09:49:39;;;;;;;3.90;1.38;;;28.80;74.30;;;;;;6367721;22;20010;-76
2022/09/09 09:52:07;;;;;;;6.07;1.63;;;28.90;71.90;;;;;;6367520;22;20005;-75
2022/09/09 09:54:38;;;;;;;2.35;0.93;;;28.70;72.00;;;;;;6367499;22;20297;-75
2022/09/09 09:57:12;;;;;;;2.00;1.00;;;28.80;72.50;;;;;;6366904;22;20302;-75
2022/09/09 09:59:39;;;;;;;3.28;1.30;;;28.90;72.70;;;;;;6367494;22;20439;-76
2022/09/09 10:02:24;;;;;;;3.45;1.15;;;29.00;72.80;;;;;;6367903;22;19998;-76
2022/09/09 10:05:04;;;;;;;2.97;1.27;;;29.30;72.70;;;;;;6365739;22;19990;-76
2022/09/09 10:07:29;;;;;;;1.58;1.05;;;29.50;72.10;;;;;;6338644;22;20006;-76
2022/09/09 10:09:57;;;;;;;4.63;1.90;;;29.50;72.10;;;;;;6366129;22;20003;-76
2022/09/09 10:12:52;;;;;;;6.90;2.03;;;29.50;71.10;;;;;;6366833;22;19999;-76
2022/09/09 10:15:23;;;;;;;3.63;1.88;;;29.30;69.50;;;;;;6366817;22;20002;-76
2022/09/09 10:18:13;;;;;;;2.60;1.40;;;29.30;70.60;;;;;;6368198;22;20012;-76
2022/09/09 10:21:02;;;;;;;3.92;1.33;;;29.40;70.80;;;;;;6339455;22;20318;-86
2022/09/09 10:23:33;;;;;;;1.35;1.08;;;29.40;70.70;;;;;;6340031;22;20295;-86
2022/09/09 10:26:32;;;;;;;6.13;2.10;;;29.30;71.00;;;;;;6368291;22;20063;-87
2022/09/09 10:29:10;;;;;;;2.90;1.60;;;28.90;69.50;;;;;;6366581;22;19998;-88
2022/09/09 10:32:05;;;;;;;6.38;1.83;;;28.60;70.80;;;;;;6367957;22;20051;-85
2022/09/09 10:34:55;;;;;;;2.97;1.45;;;28.20;70.40;;;;;;6367082;22;19998;-86
2022/09/09 10:37:29;;;;;;;3.38;1.60;;;28.10;71.80;;;;;;6367482;22;20073;-85
2022/09/09 10:40:36;;;;;;;7.45;1.55;;;28.10;72.30;;;;;;6366040;22;20010;-87
2022/09/09 10:43:13;;;;;;;2.78;1.73;;;28.20;72.60;;;;;;6291451;22;20007;-85
2022/09/09 10:46:03;;;;;;;4.65;1.60;;;28.30;72.70;;;;;;6340466;22;20009;-86
2022/09/09 10:48:47;;;;;;;2.30;1.60;;;28.00;71.10;;;;;;6295629;22;20408;-85
2022/09/09 10:51:42;;;;;;;7.13;1.75;;;27.80;71.90;;;;;;6339805;22;20013;-86
2022/09/09 10:54:11;;;;;;;6.10;1.55;;;27.80;72.80;;;;;;6367615;22;20002;-86
2022/09/09 10:56:39;;;;;;;2.50;1.20;;;27.80;73.00;;;;;;6368345;22;20089;-87
2022/09/09 10:59:05;;;;;;;6.18;2.03;;;27.80;73.10;;;;;;6367707;22;20003;-87
2022/09/09 11:01:42;;;;;;;2.15;1.30;;;27.60;72.30;;;;;;6367871;22;20013;-87
2022/09/09 11:04:17;;;;;;;2.90;1.30;;;27.60;73.10;;;;;;6339862;22;20419;-87
2022/09/09 11:06:53;;;;;;;3.65;1.20;;;27.60;72.90;;;;;;6366811;22;20024;-86
2022/09/09 11:09:23;;;;;;;4.47;1.52;;;27.60;73.30;;;;;;6367541;22;19998;-84
2022/09/09 11:11:57;;;;;;;3.00;1.10;;;27.60;73.30;;;;;;6368673;22;20048;-85
2022/09/09 11:14:38;;;;;;;11.20;1.40;;;27.70;72.90;;;;;;6369213;22;19994;-85
2022/09/09 11:17:18;;;;;;;3.83;1.17;;;27.60;71.90;;;;;;6370078;22;19999;-85
2022/09/09 11:19:44;;;;;;;1.85;1.00;;;27.50;71.30;;;;;;6370543;22;20002;-85
2022/09/09 11:22:30;;;;;;;2.22;0.90;;;27.50;72.50;;;;;;6371117;22;20069;-85
2022/09/09 11:25:01;;;;;;;2.83;1.10;;;27.50;72.40;;;;;;6369680;22;19999;-86
2022/09/09 11:27:46;;;;;;;4.38;1.33;;;27.60;72.70;;;;;;6370543;22;20005;-76
2022/09/09 11:30:18;;;;;;;1.92;1.10;;;27.60;72.80;;;;;;6366493;22;20062;-76
2022/09/09 11:32:54;;;;;;;1.40;0.68;;;27.60;71.00;;;;;;6369013;22;21201;-87
2022/09/09 11:35:42;;;;;;;1.17;0.52;;;27.60;72.10;;;;;;6368709;22;20717;-86
2022/09/09 11:38:11;;;;;;;3.50;1.23;;;27.70;72.20;;;;;;6369323;22;20073;-85
2022/09/09 11:40:37;;;;;;;2.25;0.90;;;27.70;72.10;;;;;;6366157;22;20036;-75
2022/09/09 11:43:05;;;;;;;3.30;1.10;;;27.70;71.50;;;;;;6369865;22;20416;-75
2022/09/09 11:45:35;;;;;;;4.82;1.38;;;27.70;71.70;;;;;;6365275;22;20002;-77
2022/09/09 11:48:02;;;;;;;2.28;1.25;;;27.80;71.80;;;;;;6340058;22;20461;-77
2022/09/09 11:50:34;;;;;;;2.13;1.05;;;27.80;71.80;;;;;;6336906;22;20045;-77
2022/09/09 11:53:16;;;;;;;2.80;1.10;;;27.80;72.00;;;;;;6332200;22;20055;-78
2022/09/09 11:55:41;;;;;;;3.95;1.50;;;27.90;72.20;;;;;;6366913;22;20089;-76
2022/09/09 11:58:10;;;;;;;2.85;1.27;;;27.90;72.00;;;;;;6363698;22;20424;-76
2022/09/09 12:00:44;;;;;;;1.92;1.10;;;27.90;72.00;;;;;;6368311;22;20005;-76
2022/09/09 12:03:28;;;;;;;3.00;1.20;;;28.00;71.80;;;;;;6366371;22;19995;-76
2022/09/09 12:05:56;;;;;;;3.38;1.08;;;28.00;71.10;;;;;;6367556;22;20038;-76
2022/09/09 12:08:28;;;;;;;2.20;0.90;;;28.00;71.00;;;;;;6367589;22;20326;-76
2022/09/09 12:10:59;;;;;;;2.75;1.20;;;28.00;70.90;;;;;;6367323;22;20048;-76
2022/09/09 12:13:27;;;;;;;1.80;1.08;;;27.90;71.10;;;;;;6368722;22;20325;-76
2022/09/09 12:15:58;;;;;;;1.90;0.90;;;27.80;71.30;;;;;;6340673;22;20012;-76
2022/09/09 12:18:34;;;;;;;2.47;1.27;;;27.80;71.30;;;;;;6340450;22;20340;-76
2022/09/09 12:21:24;;;;;;;1.65;0.90;;;27.80;71.90;;;;;;6368833;22;20029;-76
2022/09/09 12:23:52;;;;;;;;;;;27.90;72.10;;;;;;6341551;22;19994;-75
2022/09/09 12:26:30;;;;;;;3.35;1.13;;;28.00;72.30;;;;;;6369121;22;20258;-76
2022/09/09 12:29:22;;;;;;;2.42;0.90;;;28.10;72.30;;;;;;6368353;22;20002;-76
2022/09/09 12:32:16;;;;;;;5.53;1.27;;;28.20;72.50;;;;;;6302837;22;20029;-83
2022/09/09 12:34:47;;;;;;;4.07;1.33;;;28.10;72.60;;;;;;6367795;22;20032;-83
2022/09/09 12:37:36;;;;;;;4.88;1.27;;;28.10;72.70;;;;;;6367096;22;20021;-83
2022/09/09 12:40:05;;;;;;;4.78;1.30;;;28.10;72.90;;;;;;6340079;22;20026;-83
2022/09/09 12:42:35;;;;;;;2.08;1.27;;;28.10;73.20;;;;;;6367663;22;19998;-86
2022/09/09 12:45:03;;;;;;;;;;;28.10;73.30;;;;;;6340173;22;20428;-85
2022/09/09 12:47:42;;;;;;;2.13;1.13;;;28.00;73.00;;;;;;6367705;22;19902;-84
2022/09/09 12:50:18;;;;;;;2.90;1.13;;;28.00;72.90;;;;;;6366225;22;20005;-83
2022/09/09 12:52:46;;;;;;;2.85;1.10;;;27.80;72.90;;;;;;6361447;22;20699;-85
2022/09/09 12:55:21;;;;;;;1.27;0.90;;;27.80;73.10;;;;;;6366080;22;20006;-86
2022/09/09 12:57:50;;;;;;;3.13;1.40;;;27.80;73.20;;;;;;6365724;22;20037;-84
2022/09/09 13:00:22;;;;;;;3.13;1.10;;;27.80;73.10;;;;;;6365386;22;20002;-85
2022/09/09 13:02:57;;;;;;;4.10;1.33;;;27.80;73.20;;;;;;6365496;22;20029;-84
2022/09/09 13:05:37;;;;;;;3.70;1.67;;;27.90;73.50;;;;;;6360395;22;20025;-84
2022/09/09 13:08:05;;;;;;;5.05;1.48;;;27.80;73.20;;;;;;6362636;22;20006;-84
2022/09/09 13:10:41;;;;;;;4.50;1.70;;;27.80;73.30;;;;;;6362386;22;20031;-83
2022/09/09 13:13:19;;;;;;;3.08;1.30;;;27.80;73.60;;;;;;6365897;22;20002;-84
2022/09/09 13:15:56;;;;;;;2.60;1.48;;;27.80;73.80;;;;;;6365129;22;20002;-84
2022/09/09 13:18:38;;;;;;;7.75;1.40;;;27.90;73.90;;;;;;6364811;22;20034;-78